Time;durP1;ratioP1;P1;durP2;ratioP2;P2;SDS_P1;SDS_P2;PMS_P1;PMS_P2;Temp;Humidity;BMP_temperature;BMP_pressure;BME280_temperature;BME280_humidity;BME280_pressure;Samples;Min_cycle;Max_cycle;Signal;HPM_P1;HPM_P2
2021/01/26 00:01:03;;;;;;;5.78;1.15;;;12.60;50.40;;;;;;5107056;28;20020;-57
2021/01/26 00:03:29;;;;;;;6.30;1.08;;;12.90;84.20;;;;;;5102947;28;20028;-56
2021/01/26 00:05:55;;;;;;;;;;;12.50;50.90;;;;;;5109617;28;20532;-55
2021/01/26 00:08:23;;;;;;;3.38;0.88;;;12.60;51.50;;;;;;5108575;28;19998;-52
2021/01/26 00:10:50;;;;;;;4.90;1.13;;;12.80;51.80;;;;;;5106773;28;20384;-55
2021/01/26 00:13:19;;;;;;;3.08;0.60;;;13.70;50.10;;;;;;5105934;28;20484;-57
2021/01/26 00:15:47;;;;;;;4.95;1.00;;;13.90;46.50;;;;;;5086923;28;20072;-52
2021/01/26 00:18:13;;;;;;;6.88;0.98;;;15.10;45.30;;;;;;5104148;28;20015;-55
2021/01/26 00:20:40;;;;;;;5.82;1.08;;;16.20;41.80;;;;;;5104120;28;20119;-58
2021/01/26 00:23:06;;;;;;;;;;;15.90;42.00;;;;;;5106021;28;20020;-58
2021/01/26 00:25:35;;;;;;;5.10;0.98;;;15.20;42.60;;;;;;5093037;28;20276;-57
2021/01/26 00:28:03;;;;;;;6.80;1.48;;;14.20;51.20;;;;;;5088214;28;20047;-55
2021/01/26 00:30:33;;;;;;;3.90;0.60;;;13.90;47.60;;;;;;5100865;28;20024;-54
2021/01/26 00:33:03;;;;;;;5.35;0.93;;;13.60;48.30;;;;;;5100971;28;20028;-56
2021/01/26 00:35:31;;;;;;;5.25;0.98;;;13.40;49.30;;;;;;5104509;28;20059;-57
2021/01/26 00:37:59;;;;;;;4.68;0.75;;;13.20;50.00;;;;;;5104757;28;20027;-54
2021/01/26 00:40:26;;;;;;;4.97;0.98;;;12.80;50.20;;;;;;5088811;28;20032;-57
2021/01/26 00:42:53;;;;;;;5.45;0.90;;;12.80;50.50;;;;;;5104871;28;20020;-56
2021/01/26 00:45:20;;;;;;;;;;;12.50;51.40;;;;;;5111618;28;20027;-56
2021/01/26 00:47:47;;;;;;;4.55;1.10;;;12.40;51.70;;;;;;5110245;28;19910;-54
2021/01/26 00:50:14;;;;;;;10.88;1.20;;;12.20;52.20;;;;;;5105340;28;20049;-54
2021/01/26 00:52:41;;;;;;;6.53;1.60;;;12.10;52.60;;;;;;5107312;28;20402;-54
2021/01/26 00:55:09;;;;;;;7.85;1.73;;;12.00;51.60;;;;;;5108593;28;20051;-58
2021/01/26 00:57:35;;;;;;;12.45;1.48;;;11.90;52.10;;;;;;5101599;28;20024;-55
2021/01/26 01:00:03;;;;;;;;;;;11.90;51.60;;;;;;5104259;28;20433;-57
2021/01/26 01:02:29;;;;;;;4.10;1.08;;;11.60;65.70;;;;;;5107890;28;19904;-57
2021/01/26 01:04:55;;;;;;;;;;;11.60;51.60;;;;;;5105619;28;20118;-58
2021/01/26 01:07:22;;;;;;;4.20;1.17;;;11.60;64.70;;;;;;5108650;28;19953;-60
2021/01/26 01:09:48;;;;;;;;;;;11.70;50.40;;;;;;5092356;28;20412;-55
2021/01/26 01:12:14;;;;;;;7.95;1.35;;;11.60;50.80;;;;;;5089638;28;19940;-60
2021/01/26 01:14:41;;;;;;;;;;;11.20;57.20;;;;;;5089120;28;20085;-58
2021/01/26 01:17:09;;;;;;;6.80;1.40;;;11.60;59.30;;;;;;5105520;28;19908;-55
2021/01/26 01:19:36;;;;;;;8.77;1.20;;;11.60;52.30;;;;;;5107320;28;20043;-57
2021/01/26 01:22:03;;;;;;;7.43;1.30;;;11.60;52.90;;;;;;5109461;28;20034;-58
2021/01/26 01:24:29;;;;;;;;;;;11.60;53.40;;;;;;5108444;28;20030;-59
2021/01/26 01:26:55;;;;;;;10.30;1.63;;;11.50;53.60;;;;;;5105666;28;19912;-58
2021/01/26 01:29:22;;;;;;;;;;;11.40;57.60;;;;;;5103733;28;20063;-58
2021/01/26 01:31:48;;;;;;;5.80;1.48;;;11.50;56.90;;;;;;5096277;28;19912;-59
2021/01/26 01:34:14;;;;;;;;;;;11.50;56.90;;;;;;5108865;28;20046;-53
2021/01/26 01:36:41;;;;;;;8.90;1.45;;;11.60;66.10;;;;;;5103944;28;19915;-57
2021/01/26 01:39:09;;;;;;;5.30;1.33;;;11.30;52.70;;;;;;5102936;28;21441;-58
2021/01/26 01:41:36;;;;;;;;;;;11.30;52.30;;;;;;5089525;28;20032;-56
2021/01/26 01:44:05;;;;;;;12.57;2.08;;;11.30;53.60;;;;;;5105750;28;19908;-57
2021/01/26 01:46:39;;;;;;;9.68;1.90;;;11.20;51.80;;;;;;5101016;28;20046;-58
2021/01/26 01:49:08;;;;;;;6.60;1.30;;;11.20;55.80;;;;;;5103965;28;20055;-57
2021/01/26 01:51:41;;;;;;;8.85;1.77;;;11.30;50.60;;;;;;5110378;28;20023;-57
2021/01/26 01:54:10;;;;;;;9.18;1.98;;;11.50;52.60;;;;;;5103276;28;20032;-58
2021/01/26 01:56:43;;;;;;;19.10;2.60;;;11.30;48.60;;;;;;5098767;28;20017;-58
2021/01/26 01:59:17;;;;;;;7.35;1.40;;;11.30;48.80;;;;;;5108504;28;20111;-56
2021/01/26 02:01:45;;;;;;;4.20;1.02;;;11.30;49.40;;;;;;5103764;28;20020;-56
2021/01/26 02:04:17;;;;;;;7.18;1.42;;;11.20;49.20;;;;;;5105365;28;20033;-58
2021/01/26 02:06:46;;;;;;;5.38;1.05;;;11.20;50.10;;;;;;5090863;28;20038;-54
2021/01/26 02:09:25;;;;;;;14.55;1.17;;;11.20;50.50;;;;;;5103985;28;20037;-56
2021/01/26 02:11:51;;;;;;;5.53;0.95;;;11.10;50.20;;;;;;5106705;28;20428;-57
2021/01/26 02:14:17;;;;;;;;;;;11.00;50.80;;;;;;5091111;28;20088;-58
2021/01/26 02:17:14;;;;;;;8.27;1.52;;;11.00;51.20;;;;;;5102777;28;19919;-56
2021/01/26 02:19:59;;;;;;;8.50;1.45;;;11.00;51.10;;;;;;5103973;28;20032;-54
2021/01/26 02:23:03;;;;;;;3.63;1.40;;;11.00;51.70;;;;;;5098627;28;20093;-56
2021/01/26 02:26:04;;;;;;;9.93;1.58;;;11.00;51.60;;;;;;5106165;28;20097;-57
2021/01/26 02:29:14;;;;;;;6.13;1.50;;;10.90;51.50;;;;;;5108348;28;20094;-59
2021/01/26 02:31:59;;;;;;;7.15;1.58;;;10.90;52.30;;;;;;5089746;28;20032;-57
2021/01/26 02:35:02;;;;;;;4.68;1.73;;;10.90;51.80;;;;;;5111398;28;20032;-54
2021/01/26 02:38:03;;;;;;;4.25;1.48;;;10.90;53.20;;;;;;5108914;28;20063;-56
2021/01/26 02:40:36;;;;;;;7.28;1.50;;;10.90;53.10;;;;;;5102659;28;20031;-57
2021/01/26 02:43:14;;;;;;;3.22;1.10;;;10.80;53.50;;;;;;5108800;28;20626;-59
2021/01/26 02:45:56;;;;;;;6.47;1.42;;;10.80;52.90;;;;;;5111204;28;20078;-58
2021/01/26 02:48:46;;;;;;;6.95;1.15;;;10.80;52.60;;;;;;5103024;28;20036;-57
2021/01/26 02:51:18;;;;;;;5.75;1.40;;;10.70;50.30;;;;;;5106860;28;20087;-58
2021/01/26 02:54:24;;;;;;;6.50;0.98;;;10.80;48.80;;;;;;5110712;28;20028;-56
2021/01/26 02:57:06;;;;;;;14.23;1.40;;;10.90;48.50;;;;;;5109038;28;20107;-58
2021/01/26 02:59:44;;;;;;;4.18;0.85;;;10.90;48.60;;;;;;5105928;28;20548;-58
2021/01/26 03:02:22;;;;;;;6.93;1.10;;;10.90;48.90;;;;;;5096146;28;20048;-57
2021/01/26 03:05:14;;;;;;;11.50;2.17;;;11.00;48.90;;;;;;5091121;28;20098;-56
2021/01/26 03:07:49;;;;;;;4.95;1.60;;;11.00;49.40;;;;;;5106117;28;20488;-55
2021/01/26 03:10:20;;;;;;;8.00;1.80;;;11.00;49.10;;;;;;5101142;28;20047;-58
2021/01/26 03:13:00;;;;;;;7.70;1.30;;;11.00;49.10;;;;;;5110342;28;20040;-52
2021/01/26 03:15:48;;;;;;;6.55;1.10;;;11.00;49.30;;;;;;5091919;28;20087;-56
2021/01/26 03:18:18;;;;;;;3.78;1.00;;;11.00;49.30;;;;;;5108983;28;20590;-58
2021/01/26 03:20:55;;;;;;;4.72;1.02;;;11.00;49.90;;;;;;5107987;28;20040;-58
2021/01/26 03:23:34;;;;;;;8.88;1.30;;;11.10;49.80;;;;;;5104703;28;20040;-55
2021/01/26 03:26:04;;;;;;;12.27;1.58;;;11.10;49.50;;;;;;5104604;28;20047;-55
2021/01/26 03:28:31;;;;;;;6.43;1.55;;;11.10;49.80;;;;;;5102546;28;20028;-57
2021/01/26 03:31:00;;;;;;;10.63;1.88;;;11.20;49.80;;;;;;5101086;28;20388;-57
2021/01/26 03:33:40;;;;;;;6.18;1.20;;;11.20;50.10;;;;;;5105759;28;20064;-58
2021/01/26 03:36:06;;;;;;;10.25;1.38;;;11.20;50.00;;;;;;5096863;28;20087;-57
2021/01/26 03:38:34;;;;;;;9.40;1.52;;;11.20;50.10;;;;;;5079091;28;20035;-57
2021/01/26 03:41:03;;;;;;;6.38;1.42;;;11.30;51.10;;;;;;5079702;28;20031;-56
2021/01/26 03:43:29;;;;;;;9.35;2.35;;;11.20;50.90;;;;;;5089200;28;20052;-58
2021/01/26 03:46:19;;;;;;;5.13;2.00;;;11.30;53.80;;;;;;5069995;28;20111;-59
2021/01/26 03:48:51;;;;;;;6.45;1.30;;;11.10;54.20;;;;;;5078580;28;20051;-55
2021/01/26 03:51:39;;;;;;;13.13;1.80;;;10.80;77.40;;;;;;5071008;28;20043;-56
2021/01/26 03:54:17;;;;;;;11.05;1.40;;;10.80;57.00;;;;;;5074820;28;20077;-56
2021/01/26 03:57:03;;;;;;;5.75;1.42;;;10.80;57.60;;;;;;5078003;28;20040;-57
2021/01/26 03:59:46;;;;;;;9.27;2.30;;;10.80;58.60;;;;;;5085249;28;20038;-56
2021/01/26 04:02:22;;;;;;;4.10;1.23;;;10.70;60.90;;;;;;5078689;28;20045;-58
2021/01/26 04:04:58;;;;;;;13.43;1.80;;;10.70;62.20;;;;;;5081626;28;20036;-59
2021/01/26 04:07:37;;;;;;;5.83;1.63;;;10.50;62.20;;;;;;5077421;28;20076;-57
2021/01/26 04:10:19;;;;;;;4.22;1.17;;;10.40;64.30;;;;;;5090901;28;20037;-59
2021/01/26 04:12:52;;;;;;;5.90;1.50;;;10.20;65.80;;;;;;5079756;28;20134;-58
2021/01/26 04:15:56;;;;;;;5.03;1.20;;;10.20;66.00;;;;;;5080460;28;20089;-58
2021/01/26 04:18:28;;;;;;;4.18;1.42;;;10.10;65.80;;;;;;5034132;28;20082;-58
2021/01/26 04:20:56;;;;;;;7.80;1.50;;;10.20;67.00;;;;;;5087036;28;20041;-60
2021/01/26 04:23:23;;;;;;;5.63;1.58;;;10.20;66.00;;;;;;5083229;28;20663;-55
2021/01/26 04:25:51;;;;;;;7.25;1.52;;;10.20;66.00;;;;;;5086146;28;20123;-58
2021/01/26 04:28:37;;;;;;;8.00;1.95;;;10.30;66.60;;;;;;5078350;28;20040;-59
2021/01/26 04:31:05;;;;;;;6.18;1.38;;;10.30;66.00;;;;;;5076527;28;20072;-58
2021/01/26 04:33:32;;;;;;;4.97;1.30;;;10.20;65.60;;;;;;5068842;28;20095;-58
2021/01/26 04:35:59;;;;;;;7.28;2.50;;;10.30;66.00;;;;;;5080236;28;20085;-56
2021/01/26 04:38:25;;;;;;;7.18;1.35;;;10.20;65.00;;;;;;5080414;28;20043;-57
2021/01/26 04:41:00;;;;;;;;;;;10.20;64.50;;;;;;5081717;28;20044;-58
2021/01/26 04:43:52;;;;;;;10.10;2.13;;;10.20;64.90;;;;;;5077289;28;19929;-57
2021/01/26 04:46:28;;;;;;;7.80;1.60;;;10.30;65.10;;;;;;5083867;28;20042;-54
2021/01/26 04:49:01;;;;;;;14.50;1.52;;;10.30;64.30;;;;;;5081241;28;20495;-61
2021/01/26 04:51:47;;;;;;;10.63;1.90;;;10.20;64.60;;;;;;5085749;28;20020;-57
2021/01/26 04:54:22;;;;;;;16.13;2.00;;;10.30;64.80;;;;;;5066371;28;20435;-55
2021/01/26 04:57:10;;;;;;;7.53;2.50;;;10.20;63.70;;;;;;5086080;28;20038;-55
2021/01/26 04:59:47;;;;;;;12.55;2.40;;;10.20;64.20;;;;;;5080317;28;20039;-53
2021/01/26 05:02:28;;;;;;;13.43;2.47;;;10.10;64.60;;;;;;5078284;28;20017;-57
2021/01/26 05:05:08;;;;;;;9.82;2.20;;;10.10;64.60;;;;;;5083800;28;20128;-56
2021/01/26 05:07:49;;;;;;;7.20;1.83;;;10.00;64.50;;;;;;5082289;28;20403;-56
2021/01/26 05:10:18;;;;;;;11.25;2.20;;;10.00;65.50;;;;;;5084706;28;20051;-54
2021/01/26 05:12:59;;;;;;;8.02;1.98;;;9.90;65.70;;;;;;5076108;28;20032;-58
2021/01/26 05:15:29;;;;;;;12.50;2.50;;;9.90;64.90;;;;;;5087467;28;20061;-58
2021/01/26 05:18:35;;;;;;;8.18;1.85;;;9.90;65.40;;;;;;5085227;28;20077;-57
2021/01/26 05:21:08;;;;;;;9.40;1.73;;;9.90;65.00;;;;;;5053583;28;20129;-58
2021/01/26 05:23:43;;;;;;;6.28;1.95;;;9.90;64.40;;;;;;5080712;28;20024;-55
2021/01/26 05:26:12;;;;;;;6.22;1.77;;;10.00;62.40;;;;;;5077079;28;20024;-58
2021/01/26 05:28:46;;;;;;;7.85;1.45;;;10.00;61.60;;;;;;5086380;28;20028;-58
2021/01/26 05:31:26;;;;;;;9.27;1.55;;;10.10;61.30;;;;;;5062856;28;20559;-57
2021/01/26 05:34:07;;;;;;;11.57;3.35;;;10.20;61.20;;;;;;5088947;28;20060;-55
2021/01/26 05:36:34;;;;;;;9.30;1.48;;;10.30;61.40;;;;;;5061952;28;20566;-58
2021/01/26 05:39:02;;;;;;;3.85;1.27;;;10.30;62.30;;;;;;5074033;28;20031;-57
2021/01/26 05:41:31;;;;;;;6.82;1.20;;;10.40;62.30;;;;;;5062987;28;20115;-58
2021/01/26 05:44:00;;;;;;;7.90;1.45;;;10.40;61.80;;;;;;5077285;28;20032;-56
2021/01/26 05:46:54;;;;;;;8.48;1.48;;;10.50;61.90;;;;;;5085641;28;20036;-56
2021/01/26 05:49:37;;;;;;;7.35;1.17;;;10.30;67.90;;;;;;5083275;28;20047;-58
2021/01/26 05:52:08;;;;;;;5.47;1.40;;;10.10;75.10;;;;;;5085289;28;20024;-58
2021/01/26 05:54:50;;;;;;;8.73;1.30;;;9.80;76.90;;;;;;5086352;28;20036;-57
2021/01/26 05:57:46;;;;;;;8.35;1.50;;;9.70;81.00;;;;;;5090662;28;20091;-53
2021/01/26 06:00:24;;;;;;;6.78;1.15;;;9.60;82.40;;;;;;5068940;28;20127;-55
2021/01/26 06:03:12;;;;;;;7.97;1.60;;;9.60;83.50;;;;;;5086482;28;20032;-55
2021/01/26 06:05:41;;;;;;;7.40;1.33;;;9.70;85.60;;;;;;5084369;28;20051;-58
2021/01/26 06:08:14;;;;;;;4.75;1.15;;;9.70;85.50;;;;;;5085932;28;20321;-56
2021/01/26 06:10:44;;;;;;;8.48;1.70;;;9.70;84.80;;;;;;5089461;28;20031;-54
2021/01/26 06:13:12;;;;;;;6.05;1.60;;;9.70;85.60;;;;;;5082924;28;20037;-57
2021/01/26 06:15:41;;;;;;;8.55;1.77;;;9.60;84.90;;;;;;5088065;28;20036;-58
2021/01/26 06:18:16;;;;;;;5.47;1.60;;;9.60;87.40;;;;;;5082979;28;20084;-56
2021/01/26 06:20:44;;;;;;;9.30;1.80;;;9.60;88.50;;;;;;5083877;28;20040;-54
2021/01/26 06:23:15;;;;;;;6.25;1.75;;;9.60;87.30;;;;;;5087086;28;20020;-53
2021/01/26 06:25:45;;;;;;;7.63;1.33;;;9.60;86.20;;;;;;5078030;28;20038;-55
2021/01/26 06:28:54;;;;;;;4.78;1.67;;;9.60;84.20;;;;;;5076804;28;20021;-56
2021/01/26 06:31:58;;;;;;;6.45;1.27;;;9.60;84.90;;;;;;5077822;28;20078;-53
2021/01/26 06:34:59;;;;;;;8.73;1.52;;;9.50;83.20;;;;;;5089964;28;20062;-53
2021/01/26 06:37:34;;;;;;;12.32;1.77;;;9.50;83.20;;;;;;5108110;28;20436;-58
2021/01/26 06:40:10;;;;;;;10.25;2.33;;;9.40;84.60;;;;;;5101465;28;20020;-53
2021/01/26 06:42:58;;;;;;;11.20;2.75;;;9.40;83.70;;;;;;5105299;28;20031;-54
2021/01/26 06:45:46;;;;;;;9.77;2.30;;;9.30;82.50;;;;;;5109094;28;20020;-56
2021/01/26 06:48:41;;;;;;;9.05;1.75;;;9.30;81.70;;;;;;5107549;28;20800;-56
2021/01/26 06:51:36;;;;;;;11.32;2.22;;;9.30;77.50;;;;;;5109985;28;20030;-58
2021/01/26 06:54:35;;;;;;;12.55;2.17;;;9.40;74.10;;;;;;5110769;28;20053;-58
2021/01/26 06:57:08;;;;;;;6.15;1.27;;;9.50;72.00;;;;;;5096721;28;20370;-56
2021/01/26 06:59:53;;;;;;;9.20;1.40;;;9.60;71.30;;;;;;5106910;28;20081;-59
2021/01/26 07:02:38;;;;;;;9.70;1.58;;;9.60;69.40;;;;;;5110432;28;20031;-59
2021/01/26 07:05:32;;;;;;;6.70;1.70;;;9.70;67.50;;;;;;5109183;28;20028;-55
2021/01/26 07:08:32;;;;;;;6.18;1.90;;;9.80;65.40;;;;;;5105815;28;20035;-56
2021/01/26 07:11:20;;;;;;;8.48;2.55;;;9.90;64.60;;;;;;5108895;28;20024;-56
2021/01/26 07:13:46;;;;;;;;;;;10.00;63.50;;;;;;5108436;28;20016;-59
2021/01/26 07:16:25;;;;;;;8.35;1.65;;;10.20;60.30;;;;;;5107322;28;20098;-55
2021/01/26 07:19:13;;;;;;;9.02;1.77;;;10.30;60.40;;;;;;5110066;28;20077;-57
2021/01/26 07:22:16;;;;;;;5.35;1.50;;;10.40;58.70;;;;;;5108454;28;20157;-58
2021/01/26 07:25:10;;;;;;;7.30;1.52;;;10.50;58.70;;;;;;5109827;28;20063;-58
2021/01/26 07:28:28;;;;;;;5.93;1.45;;;10.60;58.70;;;;;;5106298;28;20159;-55
2021/01/26 07:31:33;;;;;;;6.07;1.30;;;10.60;58.70;;;;;;5086967;28;20172;-55
2021/01/26 07:34:13;;;;;;;9.88;1.42;;;10.60;58.20;;;;;;5106250;28;20039;-57
2021/01/26 07:36:46;;;;;;;4.15;1.10;;;10.70;58.10;;;;;;5107433;28;20040;-56
2021/01/26 07:39:32;;;;;;;4.50;0.90;;;10.70;56.60;;;;;;5103238;28;20156;-58
2021/01/26 07:42:25;;;;;;;5.32;1.40;;;10.80;58.00;;;;;;5104178;28;20015;-56
2021/01/26 07:45:08;;;;;;;5.32;1.27;;;10.70;64.70;;;;;;5106490;28;20024;-55
2021/01/26 07:47:43;;;;;;;5.10;1.20;;;10.80;56.90;;;;;;5106452;28;20024;-59
2021/01/26 07:50:31;;;;;;;4.85;0.93;;;10.80;59.10;;;;;;5088677;28;20035;-53
2021/01/26 07:53:03;;;;;;;6.45;1.77;;;10.70;61.30;;;;;;5107572;28;20066;-57
2021/01/26 07:55:43;;;;;;;8.18;1.10;;;10.90;58.30;;;;;;5108916;28;20039;-54
2021/01/26 07:58:14;;;;;;;1.95;0.90;;;10.60;63.20;;;;;;5111355;28;20027;-59
2021/01/26 08:00:51;;;;;;;4.38;1.27;;;10.50;58.60;;;;;;5104210;28;20078;-59
2021/01/26 08:03:27;;;;;;;10.05;1.48;;;10.50;58.90;;;;;;5109288;28;20051;-57
2021/01/26 08:05:56;;;;;;;4.22;1.38;;;10.50;58.90;;;;;;5104880;28;20027;-59
2021/01/26 08:08:38;;;;;;;5.20;1.33;;;10.50;59.00;;;;;;5106044;28;20095;-55
2021/01/26 08:11:21;;;;;;;8.07;1.40;;;10.50;63.80;;;;;;5086393;28;20035;-56
2021/01/26 08:14:01;;;;;;;6.22;1.50;;;10.30;96.90;;;;;;5092914;28;20052;-57
2021/01/26 08:16:30;;;;;;;8.85;1.60;;;10.40;64.60;;;;;;5108055;28;20055;-58
2021/01/26 08:18:58;;;;;;;3.22;1.10;;;10.80;90.60;;;;;;5086863;28;20016;-57
2021/01/26 08:21:42;;;;;;;5.90;1.38;;;10.40;60.00;;;;;;5105374;28;20024;-56
2021/01/26 08:24:11;;;;;;;8.35;1.20;;;10.30;83.50;;;;;;5103444;28;20098;-55
2021/01/26 08:26:38;;;;;;;7.00;1.13;;;10.70;69.70;;;;;;5106614;28;20426;-58
2021/01/26 08:29:04;;;;;;;3.90;0.93;;;10.00;84.80;;;;;;5105470;28;20055;-54
2021/01/26 08:31:35;;;;;;;4.78;1.25;;;10.20;59.90;;;;;;5096116;28;20023;-58
2021/01/26 08:34:25;;;;;;;4.90;1.33;;;10.10;60.50;;;;;;5107004;28;20032;-58
2021/01/26 08:37:09;;;;;;;3.50;1.10;;;10.10;60.70;;;;;;5080872;28;20043;-54
2021/01/26 08:39:41;;;;;;;6.97;1.00;;;9.70;82.90;;;;;;5107702;28;20035;-58
2021/01/26 08:42:10;;;;;;;6.28;1.10;;;9.90;90.60;;;;;;5107842;28;20012;-57
2021/01/26 08:44:36;;;;;;;4.07;1.40;;;10.30;71.50;;;;;;5107799;28;20417;-58
2021/01/26 08:47:39;;;;;;;11.30;1.30;;;10.00;61.60;;;;;;5090855;28;20396;-60
2021/01/26 08:50:33;;;;;;;9.40;1.00;;;10.00;62.20;;;;;;5086110;28;20440;-57
2021/01/26 08:53:27;;;;;;;6.93;1.27;;;9.90;63.30;;;;;;5107688;28;20040;-57
2021/01/26 08:56:00;;;;;;;3.47;0.90;;;9.80;63.90;;;;;;5102610;28;20509;-56
2021/01/26 08:58:40;;;;;;;5.43;0.73;;;9.80;64.10;;;;;;5109986;28;20044;-58
2021/01/26 09:01:34;;;;;;;2.35;0.73;;;9.80;64.30;;;;;;5109924;28;20026;-56
2021/01/26 09:04:13;;;;;;;5.72;0.98;;;9.90;82.60;;;;;;5105053;28;20019;-59
2021/01/26 09:06:42;;;;;;;2.53;0.73;;;9.70;64.80;;;;;;5106764;28;20468;-56
2021/01/26 09:09:31;;;;;;;4.45;1.00;;;9.60;65.30;;;;;;5103558;28;20032;-57
2021/01/26 09:12:05;;;;;;;4.15;1.30;;;9.50;83.50;;;;;;5092756;28;20032;-55
2021/01/26 09:14:44;;;;;;;3.58;0.90;;;9.60;66.30;;;;;;5081819;28;20050;-59
2021/01/26 09:17:12;;;;;;;9.20;1.33;;;9.80;81.50;;;;;;5102427;28;20028;-54
2021/01/26 09:19:41;;;;;;;5.82;1.90;;;9.80;66.30;;;;;;5097091;28;20076;-56
2021/01/26 09:22:13;;;;;;;7.90;1.85;;;9.80;66.70;;;;;;5106601;28;20376;-58
2021/01/26 09:24:41;;;;;;;6.88;1.10;;;9.80;66.30;;;;;;5108346;28;20476;-56
2021/01/26 09:27:30;;;;;;;8.07;1.23;;;9.30;85.80;;;;;;5100258;28;20062;-55
2021/01/26 09:30:22;;;;;;;3.25;1.13;;;9.70;66.80;;;;;;5107583;28;20019;-56
2021/01/26 09:33:26;;;;;;;4.03;1.02;;;9.70;67.50;;;;;;5105195;28;20065;-53
2021/01/26 09:36:01;;;;;;;3.60;1.13;;;9.50;68.20;;;;;;5104897;28;20096;-57
2021/01/26 09:38:45;;;;;;;3.03;0.70;;;9.40;69.40;;;;;;5103968;28;20818;-53
2021/01/26 09:41:23;;;;;;;3.42;0.75;;;9.30;70.10;;;;;;5085283;28;20019;-54
2021/01/26 09:43:58;;;;;;;2.50;0.85;;;9.20;70.80;;;;;;5106600;28;20102;-56
2021/01/26 09:46:38;;;;;;;3.38;0.80;;;9.10;71.70;;;;;;5100809;28;20028;-58
2021/01/26 09:49:23;;;;;;;3.85;0.80;;;9.20;72.40;;;;;;5103285;28;20019;-54
2021/01/26 09:51:55;;;;;;;5.75;0.88;;;9.10;73.00;;;;;;5105201;28;20024;-57
2021/01/26 09:54:28;;;;;;;3.22;0.70;;;9.10;73.20;;;;;;5106498;28;20024;-56
2021/01/26 09:56:56;;;;;;;3.67;0.70;;;9.10;73.90;;;;;;5103080;28;20028;-57
2021/01/26 09:59:23;;;;;;;3.80;0.60;;;9.00;74.60;;;;;;5107813;28;20027;-54
2021/01/26 10:01:50;;;;;;;3.97;1.15;;;9.00;73.10;;;;;;5108094;28;20923;-53
2021/01/26 10:04:20;;;;;;;7.57;1.33;;;9.10;91.20;;;;;;5105082;28;20488;-57
2021/01/26 10:06:48;;;;;;;4.53;1.23;;;9.40;62.80;;;;;;5107928;28;20030;-56
2021/01/26 10:09:21;;;;;;;7.50;1.33;;;9.90;72.90;;;;;;5099373;28;20037;-55
2021/01/26 10:11:48;;;;;;;7.57;1.30;;;9.70;90.50;;;;;;5106935;28;20044;-57
2021/01/26 10:14:16;;;;;;;9.05;1.30;;;9.60;90.30;;;;;;5101360;28;20407;-57
2021/01/26 10:16:49;;;;;;;8.60;1.45;;;9.80;80.60;;;;;;5105463;28;20020;-55
2021/01/26 10:19:22;;;;;;;4.30;1.25;;;9.60;81.00;;;;;;5104005;28;20028;-54
2021/01/26 10:21:49;;;;;;;5.22;1.33;;;9.70;60.80;;;;;;5106617;28;20081;-57
2021/01/26 10:24:27;;;;;;;10.80;1.70;;;9.40;78.70;;;;;;5089395;28;20034;-56
2021/01/26 10:27:04;;;;;;;6.65;1.50;;;9.70;61.70;;;;;;5098872;28;20028;-55
2021/01/26 10:29:34;;;;;;;16.13;5.90;;;9.80;62.20;;;;;;5107605;28;20023;-57
2021/01/26 10:32:02;;;;;;;13.48;5.47;;;9.70;62.30;;;;;;5111075;28;20027;-57
2021/01/26 10:34:34;;;;;;;12.40;4.32;;;9.70;63.10;;;;;;5104759;28;20067;-58
2021/01/26 10:37:13;;;;;;;12.38;3.80;;;9.70;63.40;;;;;;5101551;28;20080;-54
2021/01/26 10:39:42;;;;;;;8.82;2.88;;;9.70;63.20;;;;;;5105613;28;20089;-53
2021/01/26 10:42:22;;;;;;;9.82;2.67;;;9.70;62.10;;;;;;5096048;28;20055;-57
2021/01/26 10:44:54;;;;;;;7.68;1.60;;;9.70;61.50;;;;;;5106967;28;20023;-55
2021/01/26 10:47:39;;;;;;;8.63;1.70;;;9.70;61.40;;;;;;5092353;28;20032;-57
2021/01/26 10:50:26;;;;;;;10.35;1.67;;;9.60;60.60;;;;;;5106945;28;20027;-54
2021/01/26 10:52:53;;;;;;;8.30;1.50;;;9.60;61.00;;;;;;5098848;28;20039;-58
2021/01/26 10:55:22;;;;;;;9.43;1.55;;;9.70;61.20;;;;;;5109651;28;20341;-58
2021/01/26 10:57:50;;;;;;;6.82;1.80;;;9.60;60.90;;;;;;5107938;28;20472;-53
2021/01/26 11:00:23;;;;;;;6.65;2.05;;;9.60;61.00;;;;;;5107684;28;20088;-53
2021/01/26 11:02:50;;;;;;;10.52;2.63;;;9.60;60.60;;;;;;5111189;28;20489;-56
2021/01/26 11:05:17;;;;;;;10.50;2.08;;;9.60;62.40;;;;;;5101953;28;20032;-57
2021/01/26 11:07:44;;;;;;;10.70;2.58;;;9.70;61.00;;;;;;5107726;28;20036;-55
2021/01/26 11:10:11;;;;;;;;;;;9.70;60.50;;;;;;5108067;28;20050;-57
2021/01/26 11:12:39;;;;;;;11.67;1.93;;;9.70;60.30;;;;;;5109105;28;19907;-56
2021/01/26 11:15:13;;;;;;;10.93;2.70;;;9.60;60.50;;;;;;5109844;28;20303;-55
2021/01/26 11:17:39;;;;;;;20.13;2.95;;;9.60;60.50;;;;;;5108775;28;20070;-57
2021/01/26 11:20:06;;;;;;;;;;;9.60;61.00;;;;;;5108659;28;20023;-53
2021/01/26 11:22:33;;;;;;;7.75;1.90;;;9.60;60.90;;;;;;5093331;28;19908;-55
2021/01/26 11:25:00;;;;;;;9.75;1.73;;;9.60;61.50;;;;;;5104923;28;20035;-56
2021/01/26 11:27:27;;;;;;;10.95;2.10;;;9.10;80.20;;;;;;5107036;28;20028;-56
2021/01/26 11:29:53;;;;;;;;;;;9.50;61.00;;;;;;5109353;28;20107;-56
2021/01/26 11:32:20;;;;;;;9.88;2.15;;;9.50;62.20;;;;;;5102554;28;19904;-53
2021/01/26 11:34:47;;;;;;;11.48;2.22;;;9.40;62.20;;;;;;5108374;28;20059;-52
2021/01/26 11:37:13;;;;;;;6.97;1.70;;;9.40;63.20;;;;;;5111533;28;20115;-58
2021/01/26 11:39:40;;;;;;;9.98;2.63;;;9.30;63.00;;;;;;5099156;28;20038;-57
2021/01/26 11:42:08;;;;;;;11.80;2.20;;;9.30;63.50;;;;;;5110329;28;20023;-57
2021/01/26 11:44:35;;;;;;;5.45;1.60;;;9.00;71.50;;;;;;5105287;28;20080;-57
2021/01/26 11:47:02;;;;;;;10.98;1.90;;;8.80;75.70;;;;;;5106118;28;20027;-56
2021/01/26 11:49:29;;;;;;;5.88;1.73;;;9.30;84.30;;;;;;5107919;28;20039;-57
2021/01/26 11:51:55;;;;;;;;;;;9.20;64.30;;;;;;5106124;28;20020;-59
2021/01/26 11:54:22;;;;;;;4.18;1.80;;;9.00;76.40;;;;;;5106026;28;19919;-58
2021/01/26 11:56:48;;;;;;;;;;;9.10;64.90;;;;;;5105374;28;20059;-58
2021/01/26 11:59:14;;;;;;;6.53;1.73;;;9.40;85.70;;;;;;5105860;28;20378;-56
2021/01/26 12:01:42;;;;;;;9.80;1.83;;;8.60;68.30;;;;;;5093399;28;20468;-57
2021/01/26 12:04:08;;;;;;;23.17;4.68;;;8.60;87.80;;;;;;5109980;28;20020;-57
2021/01/26 12:06:35;;;;;;;10.50;2.08;;;9.00;65.60;;;;;;5106375;28;20099;-57
2021/01/26 12:09:01;;;;;;;;;;;9.00;66.10;;;;;;5104534;28;20095;-59
2021/01/26 12:11:29;;;;;;;12.00;2.35;;;9.30;85.90;;;;;;5108318;28;19994;-53
2021/01/26 12:13:56;;;;;;;19.48;2.97;;;9.00;65.50;;;;;;5107561;28;20015;-57
2021/01/26 12:16:22;;;;;;;18.10;4.72;;;9.40;88.00;;;;;;5108089;28;20031;-57
2021/01/26 12:18:48;;;;;;;;;;;9.10;64.40;;;;;;5098810;28;20054;-57
2021/01/26 12:21:15;;;;;;;16.77;4.15;;;8.90;82.40;;;;;;5106408;28;19948;-58
2021/01/26 12:23:43;;;;;;;;;;;9.20;70.60;;;;;;5106595;28;20023;-53
2021/01/26 12:26:11;;;;;;;7.55;2.20;;;9.40;69.50;;;;;;5101607;28;20256;-56
2021/01/26 12:28:38;;;;;;;6.45;1.33;;;9.50;58.00;;;;;;5103245;28;20094;-55
2021/01/26 12:31:04;;;;;;;12.02;1.60;;;9.50;58.30;;;;;;5106567;28;20030;-57
2021/01/26 12:33:30;;;;;;;;;;;9.60;57.80;;;;;;5107773;28;20032;-58
2021/01/26 12:35:57;;;;;;;8.50;1.42;;;9.70;61.40;;;;;;5106928;28;19926;-57
2021/01/26 12:38:23;;;;;;;8.43;1.70;;;9.70;86.00;;;;;;5108323;28;20062;-55
2021/01/26 12:40:49;;;;;;;;;;;9.90;58.50;;;;;;5109654;28;20392;-55
2021/01/26 12:43:16;;;;;;;10.07;1.85;;;9.80;68.00;;;;;;5108559;28;20320;-55
2021/01/26 12:45:43;;;;;;;12.15;1.40;;;9.80;85.50;;;;;;5103305;28;20443;-53
2021/01/26 12:48:09;;;;;;;;;;;9.70;56.60;;;;;;5108458;28;20102;-57
2021/01/26 12:50:40;;;;;;;8.95;1.85;;;9.80;56.50;;;;;;5103644;28;19950;-55
2021/01/26 12:53:07;;;;;;;6.85;1.38;;;9.60;89.20;;;;;;5102176;28;20020;-56
2021/01/26 12:55:34;;;;;;;8.55;1.50;;;10.00;84.90;;;;;;5104565;28;20035;-56
2021/01/26 12:58:01;;;;;;;11.52;1.90;;;9.70;57.50;;;;;;5107032;28;20046;-57
2021/01/26 13:00:27;;;;;;;10.02;2.00;;;9.60;81.40;;;;;;5102839;28;20019;-57
2021/01/26 13:02:56;;;;;;;8.05;1.70;;;9.40;84.40;;;;;;5106518;28;20023;-53
2021/01/26 13:05:24;;;;;;;6.85;1.60;;;9.70;91.20;;;;;;5107774;28;20020;-55
2021/01/26 13:07:51;;;;;;;9.55;1.70;;;9.20;77.70;;;;;;5100237;28;20020;-55
2021/01/26 13:10:18;;;;;;;14.65;1.88;;;9.50;60.30;;;;;;5103577;28;20021;-55
2021/01/26 13:12:46;;;;;;;11.00;1.67;;;9.30;94.20;;;;;;5102335;28;20020;-52
2021/01/26 13:15:15;;;;;;;10.77;2.00;;;9.20;71.20;;;;;;5105159;28;20560;-58
2021/01/26 13:17:42;;;;;;;19.58;2.38;;;9.30;60.00;;;;;;5106528;28;20409;-58
2021/01/26 13:20:08;;;;;;;;;;;9.40;60.40;;;;;;5106321;28;20039;-53
2021/01/26 13:22:35;;;;;;;7.68;1.60;;;9.30;60.50;;;;;;5107471;28;19954;-54
2021/01/26 13:25:01;;;;;;;;;;;9.30;61.00;;;;;;5097434;28;20020;-54
2021/01/26 13:27:27;;;;;;;7.28;1.35;;;9.30;61.40;;;;;;5104739;28;19914;-56
2021/01/26 13:29:54;;;;;;;8.02;1.27;;;9.30;60.80;;;;;;5105965;28;20058;-53
2021/01/26 13:32:21;;;;;;;10.95;1.38;;;9.30;61.00;;;;;;5107404;28;20042;-59
2021/01/26 13:34:49;;;;;;;5.72;1.30;;;9.30;61.60;;;;;;5110763;28;20061;-56
2021/01/26 13:37:16;;;;;;;7.85;1.30;;;9.20;61.50;;;;;;5098287;28;20392;-57